createdAt,value
2019-04-04T00:02:19.136Z,96879.67
2019-04-04T00:04:47.576Z,96870.14
2019-04-04T00:07:15.830Z,96872.45
2019-04-04T00:09:44.105Z,96868.40
2019-04-04T00:12:12.353Z,96878.42
2019-04-04T00:14:43.504Z,96882.86
2019-04-04T00:17:10.607Z,96882.66
2019-04-04T00:19:38.881Z,96894.66
2019-04-04T00:22:07.130Z,96894.64
2019-04-04T00:24:35.406Z,96874.29
2019-04-04T00:27:03.669Z,96870.97
2019-04-04T00:29:33.286Z,96865.07
2019-04-04T00:32:01.531Z,96877.05
2019-04-04T00:34:29.820Z,96893.52
2019-04-04T00:36:58.073Z,96889.39
2019-04-04T00:39:26.351Z,96866.95
2019-04-04T00:41:54.606Z,96855.77
2019-04-04T00:44:23.741Z,96841.90
2019-04-04T00:46:52.750Z,96840.03
2019-04-04T00:49:21.346Z,96855.14
2019-04-04T00:51:49.620Z,96850.36
2019-04-04T00:54:17.873Z,96835.67
2019-04-04T00:56:46.911Z,96834.02
2019-04-04T00:59:16.129Z,96825.34
2019-04-04T01:01:44.411Z,96830.92
2019-04-04T01:04:12.960Z,96838.25
2019-04-04T01:06:41.910Z,96846.15
2019-04-04T01:09:13.098Z,96840.63
2019-04-04T01:11:40.943Z,96828.00
2019-04-04T01:14:09.208Z,96825.23
2019-04-04T01:16:37.482Z,96825.22
2019-04-04T01:19:05.734Z,96811.06
2019-04-04T01:21:34.013Z,96801.86
2019-04-04T01:24:02.347Z,96804.96
2019-04-04T01:26:34.841Z,96796.16
2019-04-04T01:29:01.379Z,96792.84
2019-04-04T01:31:29.731Z,96772.16
2019-04-04T01:33:57.981Z,96778.86
2019-04-04T01:36:26.260Z,96788.92
2019-04-04T01:38:54.517Z,96788.80
2019-04-04T01:41:22.795Z,96796.09
2019-04-04T01:44:04.316Z,96801.94
2019-04-04T01:46:22.390Z,96805.67
2019-04-04T01:48:50.963Z,96798.26
2019-04-04T01:51:19.283Z,96775.23
2019-04-04T01:53:48.954Z,96775.69
2019-04-04T01:56:17.962Z,96784.13
2019-04-04T01:58:46.239Z,96792.77
2019-04-04T02:01:16.264Z,96796.66
2019-04-04T02:03:44.489Z,96787.88
2019-04-04T02:06:13.508Z,96797.50
2019-04-04T02:08:41.792Z,96807.11
2019-04-04T02:11:10.718Z,96808.41
2019-04-04T02:13:40.885Z,96807.82
2019-04-04T02:16:08.983Z,96802.22
2019-04-04T02:18:37.263Z,96788.16
2019-04-04T02:21:06.306Z,96778.86
2019-04-04T02:23:34.565Z,96780.56
2019-04-04T02:26:04.835Z,96783.73
2019-04-04T02:28:33.065Z,96780.41
2019-04-04T02:31:01.491Z,96788.06
2019-04-04T02:33:32.410Z,96790.09
2019-04-04T02:35:59.750Z,96799.90
2019-04-04T02:38:28.299Z,96805.14
2019-04-04T02:40:56.665Z,96795.74
2019-04-04T02:43:28.388Z,96793.84
2019-04-04T02:45:54.930Z,96796.41
2019-04-04T02:48:24.703Z,96779.17
2019-04-04T02:50:54.781Z,96777.31
2019-04-04T02:53:23.063Z,96778.20
2019-04-04T02:55:51.683Z,96776.58
2019-04-04T02:58:19.964Z,96769.65
2019-04-04T03:00:48.592Z,96755.67
2019-04-04T03:03:17.435Z,96759.05
2019-04-04T03:05:50.951Z,96758.51
2019-04-04T03:08:15.701Z,96746.98
2019-04-04T03:10:47.785Z,96745.22
2019-04-04T03:13:14.627Z,96759.85
2019-04-04T03:15:47.140Z,96759.25
2019-04-04T03:18:12.885Z,96753.07
2019-04-04T03:20:41.139Z,96747.60
2019-04-04T03:23:09.390Z,96728.70
2019-04-04T03:25:38.244Z,96720.66
2019-04-04T03:28:06.510Z,96711.66
2019-04-04T03:30:34.794Z,96727.98
2019-04-04T03:33:03.646Z,96740.44
2019-04-04T03:35:31.916Z,96754.21
2019-04-04T03:38:00.143Z,96767.76
2019-04-04T03:40:28.421Z,96757.70
2019-04-04T03:42:56.685Z,96763.16
2019-04-04T03:45:27.335Z,96767.97
2019-04-04T03:47:55.512Z,96770.20
2019-04-04T03:50:29.020Z,96769.03
2019-04-04T03:52:55.105Z,96762.64
2019-04-04T03:55:27.354Z,96756.44
2019-04-04T03:57:55.142Z,96757.75
2019-04-04T04:00:27.243Z,96757.42
2019-04-04T04:02:55.494Z,96764.69
2019-04-04T04:05:33.969Z,96771.67
2019-04-04T04:07:58.872Z,96768.34
2019-04-04T04:10:27.146Z,96773.75
2019-04-04T04:12:55.401Z,96772.18
2019-04-04T04:15:29.238Z,96767.59
2019-04-04T04:17:55.437Z,96761.03
2019-04-04T04:20:23.691Z,96757.38
2019-04-04T04:22:52.738Z,96750.12
2019-04-04T04:25:21.294Z,96748.34
2019-04-04T04:27:50.544Z,96738.05
2019-04-04T04:30:18.804Z,96741.70
2019-04-04T04:32:47.648Z,96752.84
2019-04-04T04:35:16.570Z,96758.12
2019-04-04T04:37:44.847Z,96751.18
2019-04-04T04:40:15.109Z,96741.05
2019-04-04T04:42:43.633Z,96738.51
2019-04-04T04:45:12.491Z,96729.34
2019-04-04T04:47:41.221Z,96717.73
2019-04-04T04:50:10.003Z,96709.61
2019-04-04T04:52:38.429Z,96718.22
2019-04-04T04:55:06.683Z,96725.31
2019-04-04T04:57:37.141Z,96730.32
2019-04-04T05:00:05.584Z,96735.14
2019-04-04T05:02:33.866Z,96743.09
2019-04-04T05:05:02.120Z,96743.36
2019-04-04T05:07:31.329Z,96754.97
2019-04-04T05:09:59.582Z,96756.50
2019-04-04T05:12:27.857Z,96752.25
2019-04-04T05:14:56.114Z,96747.61
2019-04-04T05:17:24.961Z,96742.83
2019-04-04T05:19:53.992Z,96741.09
2019-04-04T05:22:22.265Z,96724.12
2019-04-04T05:25:06.706Z,96716.55
2019-04-04T05:27:20.544Z,96715.95
2019-04-04T05:29:48.801Z,96712.24
2019-04-04T05:32:17.081Z,96725.95
2019-04-04T05:34:45.335Z,96716.70
2019-04-04T05:37:13.636Z,96709.59
2019-04-04T05:39:41.868Z,96734.20
2019-04-04T05:42:10.720Z,96736.81
2019-04-04T05:44:41.278Z,96738.09
2019-04-04T05:47:09.556Z,96728.60
2019-04-04T05:49:38.189Z,96718.66
2019-04-04T05:52:08.934Z,96718.77
2019-04-04T05:54:39.188Z,96716.30
2019-04-04T05:57:07.845Z,96731.22
2019-04-04T05:59:37.505Z,96709.80
2019-04-04T06:02:05.775Z,96713.65
2019-04-04T06:04:34.310Z,96725.05
2019-04-04T06:07:04.345Z,96734.02
2019-04-04T06:09:32.565Z,96741.52
2019-04-04T06:12:00.843Z,96727.25
2019-04-04T06:14:29.980Z,96731.09
2019-04-04T06:16:58.956Z,96734.88
2019-04-04T06:19:27.213Z,96745.18
2019-04-04T06:21:55.492Z,96754.04
2019-04-04T06:24:25.187Z,96763.28
2019-04-04T06:26:53.725Z,96768.36
2019-04-04T06:29:22.006Z,96765.07
2019-04-04T06:31:50.930Z,96755.70
2019-04-04T06:34:19.213Z,96748.59
2019-04-04T06:36:49.060Z,96745.98
2019-04-04T06:39:17.265Z,96758.09
2019-04-04T06:41:46.298Z,96752.61
2019-04-04T06:44:15.153Z,96765.73
2019-04-04T06:46:43.395Z,96763.16
2019-04-04T06:49:11.671Z,96750.95
2019-04-04T06:51:40.700Z,96749.81
2019-04-04T06:54:09.646Z,96749.92
2019-04-04T06:56:37.902Z,96761.63
2019-04-04T06:59:06.177Z,96760.17
2019-04-04T07:01:34.433Z,96764.72
2019-04-04T07:04:04.085Z,96774.64
2019-04-04T07:06:32.306Z,96776.72
2019-04-04T07:09:00.585Z,96763.47
2019-04-04T07:11:28.842Z,96752.20
2019-04-04T07:13:59.182Z,96750.73
2019-04-04T07:16:27.665Z,96752.91
2019-04-04T07:18:55.943Z,96740.30
2019-04-04T07:21:24.534Z,96739.03
2019-04-04T07:23:52.809Z,96742.16
2019-04-04T07:26:21.068Z,96758.38
2019-04-04T07:28:53.744Z,96770.08
2019-04-04T07:31:20.667Z,96781.36
2019-04-04T07:33:49.716Z,96785.91
2019-04-04T07:36:18.185Z,96793.05
2019-04-04T07:38:47.977Z,96798.34
2019-04-04T07:41:16.492Z,96796.35
2019-04-04T07:43:44.763Z,96801.53
2019-04-04T07:46:16.839Z,96788.09
2019-04-04T07:48:43.791Z,96781.65
2019-04-04T07:51:12.047Z,96781.45
2019-04-04T07:53:40.331Z,96762.81
2019-04-04T07:56:08.584Z,96759.21
2019-04-04T07:58:36.861Z,96754.73
2019-04-04T08:01:05.891Z,96766.61
2019-04-04T08:03:34.462Z,96776.42
2019-04-04T08:06:02.714Z,96773.66
2019-04-04T08:08:30.996Z,96784.30
2019-04-04T08:10:59.818Z,96780.14
2019-04-04T08:13:28.104Z,96782.50
2019-04-04T08:15:56.355Z,96776.02
2019-04-04T08:18:24.632Z,96774.04
2019-04-04T08:20:52.886Z,96769.37
2019-04-04T08:23:21.167Z,96767.70
2019-04-04T08:25:49.422Z,96768.97
2019-04-04T08:28:18.469Z,96770.38
2019-04-04T08:30:46.725Z,96763.94
2019-04-04T08:33:15.002Z,96756.48
2019-04-04T08:35:43.260Z,96764.68
2019-04-04T08:38:12.306Z,96773.51
2019-04-04T08:40:40.566Z,96776.72
2019-04-04T08:43:08.847Z,96771.42
2019-04-04T08:45:37.104Z,96774.30
2019-04-04T08:48:05.359Z,96773.27
2019-04-04T08:50:33.641Z,96762.18
2019-04-04T08:53:01.892Z,96765.28
2019-04-04T08:55:30.169Z,96774.17
2019-04-04T08:57:58.425Z,96775.14
2019-04-04T09:00:27.470Z,96770.27
2019-04-04T09:02:55.731Z,96767.87
2019-04-04T09:05:24.007Z,96764.47
2019-04-04T09:07:52.263Z,96770.30
2019-04-04T09:10:21.317Z,96769.89
2019-04-04T09:12:50.247Z,96773.36
2019-04-04T09:15:18.526Z,96774.24
2019-04-04T09:17:46.780Z,96788.20
2019-04-04T09:20:15.055Z,96790.45
2019-04-04T09:22:43.313Z,96801.94
2019-04-04T09:25:11.591Z,96789.11
2019-04-04T09:27:40.415Z,96788.26
2019-04-04T09:30:09.807Z,96797.09
2019-04-04T09:32:38.062Z,96799.89
2019-04-04T09:35:07.113Z,96796.53
2019-04-04T09:37:35.664Z,96796.69
2019-04-04T09:40:05.979Z,96802.75
2019-04-04T09:42:35.001Z,96805.00
2019-04-04T09:45:04.085Z,96805.39
2019-04-04T09:47:32.353Z,96799.27
2019-04-04T09:50:01.201Z,96794.69
2019-04-04T09:52:29.453Z,96796.34
2019-04-04T09:54:58.010Z,96806.02
2019-04-04T09:57:26.266Z,96805.22
2019-04-04T09:59:54.554Z,96804.42
2019-04-04T10:02:22.805Z,96799.24
2019-04-04T10:04:51.111Z,96796.47
2019-04-04T10:07:19.362Z,96802.02
2019-04-04T10:09:47.647Z,96789.92
2019-04-04T10:12:15.904Z,96790.45
2019-04-04T10:14:44.186Z,96773.03
2019-04-04T10:17:12.445Z,96767.11
2019-04-04T10:19:40.724Z,96764.69
2019-04-04T10:22:09.546Z,96771.27
2019-04-04T10:24:38.393Z,96759.34
2019-04-04T10:27:07.421Z,96755.77
2019-04-04T10:29:35.698Z,96760.62
2019-04-04T10:32:05.291Z,96755.73
2019-04-04T10:34:33.545Z,96756.81
2019-04-04T10:37:02.401Z,96764.54
2019-04-04T10:39:32.787Z,96765.30
2019-04-04T10:42:00.714Z,96764.91
2019-04-04T10:44:29.475Z,96763.83
2019-04-04T10:46:58.526Z,96767.07
2019-04-04T10:49:27.356Z,96770.39
2019-04-04T10:51:55.970Z,96770.27
2019-04-04T10:54:24.217Z,96772.06
2019-04-04T10:56:52.500Z,96770.05
2019-04-04T10:59:20.754Z,96768.09
2019-04-04T11:01:49.897Z,96777.73
2019-04-04T11:04:18.150Z,96786.09
2019-04-04T11:06:46.428Z,96791.49
2019-04-04T11:09:14.681Z,96783.71
2019-04-04T11:11:42.959Z,96787.52
2019-04-04T11:14:11.296Z,96795.36
2019-04-04T11:16:39.870Z,96791.73
2019-04-04T11:19:09.807Z,96792.48
2019-04-04T11:21:38.151Z,96795.91
2019-04-04T11:24:06.405Z,96786.07
2019-04-04T11:26:34.688Z,96768.34
2019-04-04T11:29:02.942Z,96776.26
2019-04-04T11:31:31.490Z,96772.62
2019-04-04T11:34:01.082Z,96771.81
2019-04-04T11:36:29.365Z,96765.66
2019-04-04T11:38:57.630Z,96759.92
2019-04-04T11:41:25.908Z,96753.86
2019-04-04T11:43:54.831Z,96753.97
2019-04-04T11:46:23.112Z,96761.62
2019-04-04T11:48:51.933Z,96754.42
2019-04-04T11:51:20.783Z,96737.91
2019-04-04T11:53:49.039Z,96752.22
2019-04-04T11:56:18.655Z,96753.56
2019-04-04T11:58:46.905Z,96756.58
2019-04-04T12:01:16.821Z,96766.22
2019-04-04T12:03:45.079Z,96786.55
2019-04-04T12:06:13.368Z,96791.52
2019-04-04T12:08:41.888Z,96800.61
2019-04-04T12:11:10.165Z,96808.84
2019-04-04T12:13:38.995Z,96809.92
2019-04-04T12:16:07.274Z,96802.62
2019-04-04T12:18:35.526Z,96816.75
2019-04-04T12:21:03.804Z,96827.16
2019-04-04T12:23:32.628Z,96821.78
2019-04-04T12:26:00.905Z,96802.17
2019-04-04T12:28:29.440Z,96806.19
2019-04-04T12:30:58.386Z,96815.80
2019-04-04T12:33:26.643Z,96814.31
2019-04-04T12:35:55.491Z,96817.36
2019-04-04T12:38:23.748Z,96820.23
2019-04-04T12:40:52.033Z,96810.86
2019-04-04T12:43:20.286Z,96799.75
2019-04-04T12:45:48.634Z,96801.45
2019-04-04T12:48:16.889Z,96805.98
2019-04-04T12:50:48.282Z,96794.92
2019-04-04T12:53:16.387Z,96781.61
2019-04-04T12:55:44.646Z,96786.97
2019-04-04T12:58:12.918Z,96785.72
2019-04-04T13:00:41.170Z,96776.31
2019-04-04T13:03:09.446Z,96781.39
2019-04-04T13:05:37.702Z,96785.48
2019-04-04T13:08:05.983Z,96772.34
2019-04-04T13:10:34.561Z,96778.66
2019-04-04T13:13:02.841Z,96790.45
2019-04-04T13:15:31.864Z,96785.37
2019-04-04T13:18:00.714Z,96783.78
2019-04-04T13:20:28.968Z,96767.91
2019-04-04T13:22:57.246Z,96772.61
2019-04-04T13:25:25.502Z,96780.57
2019-04-04T13:27:53.785Z,96779.66
2019-04-04T13:30:22.206Z,96772.88
2019-04-04T13:32:50.492Z,96776.38
2019-04-04T13:35:19.077Z,96793.11
2019-04-04T13:37:47.351Z,96790.28
2019-04-04T13:40:15.606Z,96797.16
2019-04-04T13:42:43.883Z,96790.52
2019-04-04T13:45:12.135Z,96796.71
2019-04-04T13:47:40.669Z,96797.47
2019-04-04T13:50:12.302Z,96790.95
2019-04-04T13:52:38.617Z,96774.29
2019-04-04T13:55:06.872Z,96775.25
2019-04-04T13:57:35.151Z,96794.30
2019-04-04T14:00:06.148Z,96795.00
2019-04-04T14:02:34.431Z,96799.30
2019-04-04T14:05:09.653Z,96796.29
2019-04-04T14:07:33.622Z,96813.86
2019-04-04T14:10:01.879Z,96817.70
2019-04-04T14:12:30.235Z,96822.75
2019-04-04T14:14:58.490Z,96824.29
2019-04-04T14:17:26.769Z,96834.76
2019-04-04T14:19:55.598Z,96854.95
2019-04-04T14:22:24.446Z,96871.53
2019-04-04T14:24:53.276Z,96881.39
2019-04-04T14:27:21.563Z,96903.48
2019-04-04T14:29:49.815Z,96920.94
2019-04-04T14:32:20.929Z,96903.83
2019-04-04T14:34:48.069Z,96883.59
2019-04-04T14:37:16.351Z,96883.15
2019-04-04T14:39:45.381Z,96867.35
2019-04-04T14:42:14.230Z,96858.33
2019-04-04T14:44:42.492Z,96847.07
2019-04-04T14:47:10.749Z,96839.23
2019-04-04T14:49:39.026Z,96824.66
2019-04-04T14:52:07.302Z,96822.70
2019-04-04T14:54:35.567Z,96811.16
2019-04-04T14:57:03.823Z,96800.91
2019-04-04T14:59:32.570Z,96815.41
2019-04-04T15:02:01.399Z,96831.44
2019-04-04T15:04:29.678Z,96842.33
2019-04-04T15:06:57.938Z,96843.09
2019-04-04T15:09:26.892Z,96840.87
2019-04-04T15:11:55.147Z,96843.75
2019-04-04T15:14:23.994Z,96859.33
2019-04-04T15:16:52.584Z,96869.28
2019-04-04T15:19:21.430Z,96873.12
2019-04-04T15:21:49.686Z,96871.77
2019-04-04T15:24:17.966Z,96874.50
2019-04-04T15:26:46.493Z,96878.98
2019-04-04T15:29:15.546Z,96877.19
2019-04-04T15:31:44.570Z,96892.91
2019-04-04T15:34:12.855Z,96893.14
2019-04-04T15:36:41.109Z,96908.44
2019-04-04T15:39:10.167Z,96899.88
2019-04-04T15:41:38.429Z,96896.50
2019-04-04T15:44:06.708Z,96895.98
2019-04-04T15:46:34.968Z,96904.00
2019-04-04T15:49:03.253Z,96899.51
2019-04-04T15:51:31.509Z,96898.92
2019-04-04T15:53:59.790Z,96897.58
2019-04-04T15:56:28.045Z,96896.12
2019-04-04T15:58:56.323Z,96897.89
2019-04-04T16:01:24.578Z,96910.16
2019-04-04T16:03:53.953Z,96918.00
2019-04-04T16:06:22.879Z,96923.58
2019-04-04T16:08:51.163Z,96936.86
2019-04-04T16:11:19.420Z,96933.02
2019-04-04T16:13:47.700Z,96948.09
2019-04-04T16:16:15.967Z,96950.78
2019-04-04T16:18:44.237Z,96965.17
2019-04-04T16:21:12.498Z,96966.13
2019-04-04T16:23:41.094Z,96970.28
2019-04-04T16:26:10.090Z,96974.76
2019-04-04T16:28:38.367Z,96984.47
2019-04-04T16:31:06.624Z,96986.13
2019-04-04T16:33:36.239Z,96979.59
2019-04-04T16:36:05.567Z,96977.11
2019-04-04T16:38:34.028Z,96984.39
2019-04-04T16:41:02.847Z,96979.20
2019-04-04T16:43:31.128Z,96976.30
2019-04-04T16:45:59.954Z,96979.83
2019-04-04T16:48:28.211Z,96989.14
2019-04-04T16:50:56.489Z,96991.01
2019-04-04T16:53:24.916Z,96999.09
2019-04-04T16:55:53.194Z,96998.37
2019-04-04T16:58:21.451Z,96999.30
2019-04-04T17:00:49.727Z,96995.56
2019-04-04T17:03:18.656Z,97006.03
2019-04-04T17:05:46.933Z,97016.12
2019-04-04T17:08:15.217Z,97020.23
2019-04-04T17:10:44.105Z,97014.13
2019-04-04T17:13:12.363Z,97011.76
2019-04-04T17:15:41.406Z,97001.90
2019-04-04T17:18:09.662Z,97008.22
2019-04-04T17:20:38.520Z,97015.27
2019-04-04T17:23:06.849Z,97014.25
2019-04-04T17:25:35.131Z,97019.63
2019-04-04T17:28:03.432Z,97009.80
2019-04-04T17:30:32.477Z,97016.88
2019-04-04T17:33:01.132Z,97021.14
2019-04-04T17:35:29.859Z,97022.98
2019-04-04T17:37:58.119Z,97014.52
2019-04-04T17:40:26.392Z,97014.59
2019-04-04T17:42:54.697Z,97016.36
2019-04-04T17:45:25.247Z,97016.15
2019-04-04T17:47:53.576Z,97012.00
2019-04-04T17:50:21.904Z,97004.42
2019-04-04T17:52:50.629Z,97010.75
2019-04-04T17:55:18.949Z,97011.05
2019-04-04T17:57:47.738Z,97000.28
2019-04-04T18:00:16.410Z,96996.98
2019-04-04T18:02:44.686Z,97003.48
2019-04-04T18:05:13.534Z,97008.45
2019-04-04T18:07:41.794Z,96998.42
2019-04-04T18:12:42.537Z,97004.95
2019-04-04T18:15:10.821Z,97002.66
2019-04-04T18:17:39.082Z,96998.63
2019-04-04T18:20:07.736Z,97001.70
2019-04-04T18:22:36.064Z,97013.63
2019-04-04T18:25:08.067Z,97004.41
2019-04-04T18:27:36.325Z,97013.50
2019-04-04T18:30:07.865Z,97018.88
2019-04-04T18:32:36.122Z,97034.00
2019-04-04T18:35:06.217Z,97039.45
2019-04-04T18:37:34.556Z,97043.72
2019-04-04T18:40:03.203Z,97044.23
2019-04-04T18:42:31.459Z,97047.81
2019-04-04T18:44:59.747Z,97042.44
2019-04-04T18:47:28.003Z,97042.82
2019-04-04T18:49:56.285Z,97030.02
2019-04-04T18:52:24.538Z,97029.30
2019-04-04T18:54:52.800Z,97032.73
2019-04-04T18:57:21.082Z,97030.05
2019-04-04T18:59:49.341Z,97040.20
2019-04-04T19:02:17.613Z,97037.47
2019-04-04T19:04:45.872Z,97044.91
2019-04-04T19:07:14.155Z,97051.21
2019-04-04T19:09:42.417Z,97057.78
2019-04-04T19:12:10.695Z,97063.03
2019-04-04T19:14:38.952Z,97062.67
2019-04-04T19:17:07.226Z,97071.20
2019-04-04T19:19:35.486Z,97076.68
2019-04-04T19:22:03.770Z,97074.72
2019-04-04T19:24:32.022Z,97078.12
2019-04-04T19:27:00.303Z,97074.82
2019-04-04T19:29:31.416Z,97076.91
2019-04-04T19:31:58.563Z,97069.12
2019-04-04T19:34:26.829Z,97073.70
2019-04-04T19:36:55.368Z,97069.98
2019-04-04T19:39:23.627Z,97069.56
2019-04-04T19:41:51.902Z,97074.22
2019-04-04T19:44:20.165Z,97085.16
2019-04-04T19:46:48.453Z,97086.61
2019-04-04T19:49:16.702Z,97086.09
2019-04-04T19:51:44.988Z,97105.95
2019-04-04T19:54:13.239Z,97097.59
2019-04-04T19:56:41.607Z,97093.88
2019-04-04T19:59:09.858Z,97094.96
2019-04-04T20:01:38.198Z,97101.17
2019-04-04T20:04:06.464Z,97102.97
2019-04-04T20:06:34.749Z,97105.25
2019-04-04T20:09:03.006Z,97106.27
2019-04-04T20:11:31.282Z,97108.73
2019-04-04T20:13:59.543Z,97100.66
2019-04-04T20:16:27.822Z,97101.55
2019-04-04T20:18:56.073Z,97107.57
2019-04-04T20:21:24.352Z,97111.92
2019-04-04T20:23:52.610Z,97118.38
2019-04-04T20:26:21.553Z,97128.68
2019-04-04T20:28:49.806Z,97125.25
2019-04-04T20:31:18.088Z,97122.59
2019-04-04T20:33:46.343Z,97114.62
2019-04-04T20:36:14.621Z,97130.02
2019-04-04T20:38:43.559Z,97135.31
2019-04-04T20:41:12.601Z,97141.53
2019-04-04T20:43:43.476Z,97137.59
2019-04-04T20:46:12.264Z,97128.36
2019-04-04T20:48:40.518Z,97123.06
2019-04-04T20:51:08.770Z,97126.31
2019-04-04T20:53:37.057Z,97124.87
2019-04-04T20:56:05.659Z,97125.98
2019-04-04T20:58:33.940Z,97131.55
2019-04-04T21:01:02.225Z,97124.55
2019-04-04T21:03:30.509Z,97130.07
2019-04-04T21:05:58.763Z,97135.02
2019-04-04T21:08:27.055Z,97141.52
2019-04-04T21:10:55.312Z,97150.37
2019-04-04T21:13:23.858Z,97151.81
2019-04-04T21:15:52.129Z,97150.19
2019-04-04T21:18:20.406Z,97152.74
2019-04-04T21:20:48.662Z,97168.19
2019-04-04T21:23:17.225Z,97174.86
2019-04-04T21:25:45.480Z,97178.11
2019-04-04T21:28:13.826Z,97186.13
2019-04-04T21:30:42.858Z,97180.34
2019-04-04T21:33:11.142Z,97189.22
2019-04-04T21:35:39.962Z,97190.16
2019-04-04T21:38:08.817Z,97189.46
2019-04-04T21:40:37.075Z,97183.60
2019-04-04T21:43:05.356Z,97183.73
2019-04-04T21:45:33.621Z,97183.81
2019-04-04T21:48:01.900Z,97185.59
2019-04-04T21:50:30.155Z,97188.17
2019-04-04T21:52:58.435Z,97191.95
2019-04-04T21:55:26.690Z,97197.25
2019-04-04T21:57:55.533Z,97199.11
2019-04-04T22:00:25.425Z,97197.36
2019-04-04T22:02:53.706Z,97196.85
2019-04-04T22:05:22.539Z,97189.56
2019-04-04T22:07:50.818Z,97192.90
2019-04-04T22:10:19.074Z,97190.53
2019-04-04T22:12:48.120Z,97192.71
2019-04-04T22:15:16.379Z,97204.67
2019-04-04T22:17:44.659Z,97215.75
2019-04-04T22:20:12.917Z,97221.97
2019-04-04T22:22:41.763Z,97235.47
2019-04-04T22:25:10.023Z,97234.45
2019-04-04T22:27:38.306Z,97229.10
2019-04-04T22:30:09.389Z,97244.38
2019-04-04T22:32:37.678Z,97235.80
2019-04-04T22:35:06.602Z,97235.84
2019-04-04T22:37:35.545Z,97231.64
2019-04-04T22:40:06.043Z,97232.05
2019-04-04T22:42:34.324Z,97223.12
2019-04-04T22:45:03.349Z,97228.30
2019-04-04T22:47:32.399Z,97233.56
2019-04-04T22:50:00.656Z,97232.66
2019-04-04T22:52:29.707Z,97243.66
2019-04-04T22:54:57.963Z,97249.11
2019-04-04T22:57:26.992Z,97256.27
2019-04-04T22:59:55.265Z,97262.95
2019-04-04T23:02:24.094Z,97266.84
2019-04-04T23:04:52.376Z,97259.67
2019-04-04T23:07:20.632Z,97254.38
2019-04-04T23:09:49.583Z,97254.05
2019-04-04T23:12:17.841Z,97259.21
2019-04-04T23:14:48.401Z,97261.02
2019-04-04T23:17:17.397Z,97263.57
2019-04-04T23:19:45.676Z,97262.11
2019-04-04T23:22:13.929Z,97246.15
2019-04-04T23:24:42.214Z,97236.47
2019-04-04T23:27:10.472Z,97238.02
2019-04-04T23:29:38.757Z,97240.20
2019-04-04T23:32:07.016Z,97236.24
2019-04-04T23:34:35.301Z,97222.61
2019-04-04T23:37:03.564Z,97212.16
2019-04-04T23:39:31.842Z,97223.45
2019-04-04T23:42:00.106Z,97222.72
2019-04-04T23:44:28.386Z,97209.17
2019-04-04T23:46:56.656Z,97201.04
2019-04-04T23:49:24.957Z,97203.98
2019-04-04T23:51:53.200Z,97208.77
2019-04-04T23:54:21.489Z,97201.61
2019-04-04T23:56:50.314Z,97201.86
2019-04-04T23:59:18.597Z,97203.06
